Time;durP1;ratioP1;P1;durP2;ratioP2;P2;SDS_P1;SDS_P2;PMS_P1;PMS_P2;Temp;Humidity;BMP_temperature;BMP_pressure;BME280_temperature;BME280_humidity;BME280_pressure;Samples;Min_cycle;Max_cycle;Signal;HPM_P1;HPM_P2
2024/02/09 00:01:41;;;;;;;3.80;3.10;;;1.90;1.00;;;;;;5111042;27;20281;-71
2024/02/09 00:04:08;;;;;;;4.00;3.60;;;1.90;1.00;;;;;;5108943;28;20308;-72
2024/02/09 00:06:37;;;;;;;4.07;3.67;;;1.80;1.00;;;;;;5111560;27;20255;-70
2024/02/09 00:09:04;;;;;;;4.10;3.80;;;1.80;1.00;;;;;;5110278;27;20259;-71
2024/02/09 00:11:33;;;;;;;4.38;3.90;;;1.90;1.00;;;;;;5110574;27;20231;-70
2024/02/09 00:14:01;;;;;;;3.92;3.63;;;1.90;1.00;;;;;;5111294;27;20239;-74
2024/02/09 00:16:31;;;;;;;4.13;3.72;;;1.90;1.00;;;;;;5107942;27;20239;-71
2024/02/09 00:18:58;;;;;;;4.25;3.88;;;2.00;1.00;;;;;;5110412;27;21046;-71
2024/02/09 00:21:26;;;;;;;4.07;3.67;;;1.90;1.00;;;;;;5109638;27;20231;-69
2024/02/09 00:23:54;;;;;;;5.00;4.28;;;2.00;1.00;;;;;;5107422;27;20250;-70
2024/02/09 00:26:21;;;;;;;4.18;3.25;;;2.00;1.00;;;;;;5111759;27;20777;-71
2024/02/09 00:28:48;;;;;;;5.35;4.38;;;1.90;1.00;;;;;;5110896;27;20266;-71
2024/02/09 00:31:14;;;;;;;4.35;3.95;;;1.90;1.00;;;;;;5110085;27;20260;-72
2024/02/09 00:33:42;;;;;;;4.78;4.38;;;1.90;1.00;;;;;;5108450;27;20718;-73
2024/02/09 00:36:10;;;;;;;4.60;3.90;;;1.90;1.00;;;;;;5109374;27;20246;-74
2024/02/09 00:38:39;;;;;;;5.97;4.60;;;1.90;1.00;;;;;;5112044;27;20239;-72
2024/02/09 00:41:09;;;;;;;5.60;4.78;;;1.90;1.00;;;;;;5106871;28;20741;-71
2024/02/09 00:43:36;;;;;;;5.30;4.80;;;2.00;1.00;;;;;;5111850;28;20235;-71
2024/02/09 00:46:03;;;;;;;5.00;4.50;;;2.00;1.00;;;;;;5108616;27;20231;-72
2024/02/09 00:48:30;;;;;;;6.10;5.10;;;2.00;1.00;;;;;;5105132;27;20715;-72
2024/02/09 00:50:57;;;;;;;5.43;4.50;;;1.90;1.00;;;;;;5110103;27;20275;-72
2024/02/09 00:53:24;;;;;;;6.28;4.32;;;1.90;1.00;;;;;;5108944;27;20271;-72
2024/02/09 00:55:51;;;;;;;5.13;4.45;;;1.90;1.00;;;;;;5110217;27;20236;-72
2024/02/09 00:58:20;;;;;;;6.00;4.90;;;1.90;1.00;;;;;;5108915;28;20328;-72
2024/02/09 01:00:47;;;;;;;6.05;5.45;;;1.90;1.00;;;;;;5107852;27;20231;-72
2024/02/09 01:03:15;;;;;;;6.80;5.20;;;1.90;1.00;;;;;;5107197;27;20798;-72
2024/02/09 01:05:42;;;;;;;5.90;5.32;;;1.90;1.00;;;;;;5107872;27;20800;-73
2024/02/09 01:08:09;;;;;;;6.05;5.07;;;1.90;1.00;;;;;;5107390;27;20318;-77
2024/02/09 01:10:36;;;;;;;5.18;4.65;;;1.90;1.00;;;;;;5106334;27;20271;-71
2024/02/09 02:46:16;;;;;;;6.13;5.30;;;1.90;1.00;;;;;;5111164;27;20235;-72
2024/02/09 03:05:17;;;;;;;6.00;5.22;;;1.90;1.00;;;;;;5112404;27;20327;-71
2024/02/09 03:07:48;;;;;;;8.95;6.03;;;1.90;1.00;;;;;;5111504;27;20326;-76
2024/02/09 03:10:16;;;;;;;6.40;5.20;;;1.90;1.00;;;;;;5108968;27;20231;-73
2024/02/09 03:12:43;;;;;;;5.65;5.05;;;1.90;1.00;;;;;;5109477;27;20227;-71
2024/02/09 03:15:10;;;;;;;5.65;5.15;;;1.90;1.00;;;;;;5111850;27;20238;-72
2024/02/09 03:17:38;;;;;;;6.50;5.55;;;1.90;1.00;;;;;;5111829;27;20235;-72
2024/02/09 03:20:07;;;;;;;5.18;4.68;;;1.90;1.00;;;;;;5110565;27;20255;-72
2024/02/09 03:22:34;;;;;;;5.70;4.85;;;1.90;1.00;;;;;;5109020;27;20687;-73
2024/02/09 03:25:03;;;;;;;6.22;5.53;;;1.90;1.00;;;;;;5108616;27;20236;-71
2024/02/09 03:27:33;;;;;;;7.30;5.75;;;1.90;1.00;;;;;;5110386;27;20714;-71
2024/02/09 03:30:00;;;;;;;8.00;4.90;;;1.90;1.00;;;;;;5110187;27;20267;-71
2024/02/09 03:32:28;;;;;;;7.97;6.18;;;1.80;1.00;;;;;;5111075;27;20236;-70
2024/02/09 03:34:55;;;;;;;6.60;6.00;;;1.90;1.00;;;;;;5108770;27;20335;-71
2024/02/09 03:37:26;;;;;;;6.50;5.80;;;1.90;1.00;;;;;;5109630;27;21096;-71
2024/02/09 03:39:53;;;;;;;7.22;6.13;;;1.90;1.00;;;;;;5110892;27;20241;-73
2024/02/09 03:42:21;;;;;;;9.52;6.32;;;1.90;1.00;;;;;;5110313;28;20323;-71
2024/02/09 03:44:50;;;;;;;7.38;5.82;;;1.90;1.00;;;;;;5107959;27;20239;-71
2024/02/09 03:47:18;;;;;;;8.82;6.68;;;1.90;1.00;;;;;;5108874;27;20282;-70
2024/02/09 03:49:46;;;;;;;6.30;5.70;;;1.90;1.00;;;;;;5107539;28;20239;-72
2024/02/09 03:52:13;;;;;;;7.95;6.50;;;1.90;1.00;;;;;;5109621;27;20276;-71
2024/02/09 03:54:40;;;;;;;8.52;7.40;;;1.90;1.00;;;;;;5111027;27;20924;-72
2024/02/09 03:57:08;;;;;;;7.68;6.00;;;1.90;1.00;;;;;;5111203;27;20284;-71
2024/02/09 03:59:36;;;;;;;9.35;7.10;;;1.90;1.00;;;;;;5110459;27;20290;-71
2024/02/09 04:02:07;;;;;;;7.70;6.75;;;2.00;1.00;;;;;;5110258;27;20758;-71
2024/02/09 04:04:34;;;;;;;10.30;6.97;;;2.00;1.00;;;;;;5109871;27;20929;-71
2024/02/09 04:07:01;;;;;;;8.15;6.05;;;1.90;1.00;;;;;;5106227;27;20235;-73
2024/02/09 04:09:29;;;;;;;8.50;7.18;;;1.90;1.00;;;;;;5109817;27;20277;-73
2024/02/09 04:11:56;;;;;;;7.78;6.70;;;2.00;1.00;;;;;;5104557;27;20396;-72
2024/02/09 04:14:23;;;;;;;7.22;6.32;;;2.00;1.00;;;;;;5108499;27;20942;-73
2024/02/09 04:16:50;;;;;;;8.15;7.30;;;2.00;1.00;;;;;;5106498;28;20243;-72
2024/02/09 04:19:20;;;;;;;9.48;6.60;;;2.00;1.00;;;;;;5109878;27;20235;-72
2024/02/09 04:21:48;;;;;;;8.00;6.70;;;2.00;1.00;;;;;;5108566;27;20247;-74
2024/02/09 04:24:15;;;;;;;8.70;6.97;;;2.00;1.00;;;;;;5108486;27;20235;-73
2024/02/09 04:26:44;;;;;;;7.22;6.32;;;2.00;1.00;;;;;;5110934;27;20263;-73
2024/02/09 04:29:15;;;;;;;8.70;6.90;;;2.00;1.00;;;;;;5111499;27;20235;-72
2024/02/09 04:31:43;;;;;;;8.00;6.90;;;2.10;1.00;;;;;;5110720;27;20243;-74
2024/02/09 04:34:12;;;;;;;10.23;7.88;;;2.10;1.00;;;;;;5111074;27;20705;-73
2024/02/09 04:36:41;;;;;;;8.43;6.85;;;2.10;1.00;;;;;;5110133;27;20240;-71
2024/02/09 04:39:10;;;;;;;7.32;6.63;;;2.00;1.00;;;;;;5109490;27;20235;-71
2024/02/09 04:41:37;;;;;;;8.80;7.40;;;1.90;1.00;;;;;;5107470;27;20266;-72
2024/02/09 04:44:05;;;;;;;9.70;7.03;;;1.90;1.00;;;;;;5110530;27;20838;-72
2024/02/09 04:46:32;;;;;;;10.43;7.20;;;2.00;1.00;;;;;;5112157;28;20326;-73
2024/02/09 04:49:00;;;;;;;8.93;7.57;;;2.00;1.00;;;;;;5111417;27;20737;-72
2024/02/09 04:51:28;;;;;;;9.18;8.23;;;2.00;1.00;;;;;;5110452;27;20722;-72
2024/02/09 04:53:58;;;;;;;10.55;7.93;;;2.00;1.00;;;;;;5109487;27;20798;-72
2024/02/09 04:56:26;;;;;;;7.60;6.85;;;2.00;1.00;;;;;;5109494;27;20353;-71
2024/02/09 04:58:53;;;;;;;7.68;6.70;;;2.10;1.00;;;;;;5110937;27;20243;-71
2024/02/09 05:01:30;;;;;;;7.63;6.20;;;2.10;1.00;;;;;;5109261;28;20239;-72
2024/02/09 05:03:58;;;;;;;7.68;6.88;;;2.00;1.00;;;;;;5103049;27;20231;-72
2024/02/09 05:06:26;;;;;;;9.43;8.52;;;2.00;1.00;;;;;;5106756;27;20314;-72
2024/02/09 05:08:53;;;;;;;7.45;6.75;;;2.10;1.00;;;;;;5108230;27;20717;-72
2024/02/09 05:11:22;;;;;;;7.57;6.47;;;2.10;1.00;;;;;;5103634;27;20263;-72
2024/02/09 05:13:50;;;;;;;8.32;7.32;;;2.00;1.00;;;;;;5108608;27;20231;-74
2024/02/09 05:16:17;;;;;;;10.57;8.05;;;1.90;1.00;;;;;;5107787;27;20285;-73
2024/02/09 05:18:47;;;;;;;8.48;7.00;;;1.90;1.00;;;;;;5108951;27;20367;-72
2024/02/09 05:21:14;;;;;;;8.80;7.10;;;2.00;1.00;;;;;;5110938;27;20235;-74
2024/02/09 05:23:42;;;;;;;8.90;8.00;;;1.90;1.00;;;;;;5110452;27;20261;-72
2024/02/09 05:26:09;;;;;;;8.35;7.53;;;2.00;1.00;;;;;;5106890;27;20236;-73
2024/02/09 05:28:39;;;;;;;9.68;7.63;;;2.00;1.00;;;;;;5105280;27;22005;-74
2024/02/09 05:31:06;;;;;;;7.32;6.63;;;2.00;1.00;;;;;;5108766;27;20235;-73
2024/02/09 05:33:35;;;;;;;11.48;10.10;;;2.00;1.00;;;;;;5099205;27;20241;-73
2024/02/09 05:36:04;;;;;;;9.80;8.75;;;2.10;1.00;;;;;;5109134;27;20235;-72
2024/02/09 05:38:32;;;;;;;10.32;7.13;;;2.10;1.00;;;;;;5109581;27;20714;-74
2024/02/09 05:40:59;;;;;;;8.63;7.72;;;2.10;1.00;;;;;;5106408;27;20242;-73
2024/02/09 05:43:26;;;;;;;10.98;8.40;;;2.10;1.00;;;;;;5106853;27;20700;-73
2024/02/09 05:45:54;;;;;;;7.18;6.10;;;2.10;1.00;;;;;;5106060;27;20257;-77
2024/02/09 05:48:21;;;;;;;7.60;6.80;;;2.10;1.00;;;;;;5106587;27;20245;-73
2024/02/09 05:50:48;;;;;;;8.50;7.07;;;2.00;1.00;;;;;;5095610;28;20730;-73
2024/02/09 05:53:17;;;;;;;7.47;6.60;;;2.10;1.00;;;;;;5115131;27;20235;-73
2024/02/09 05:55:46;;;;;;;8.82;7.63;;;2.10;1.00;;;;;;5112373;27;20235;-73
2024/02/09 05:58:13;;;;;;;10.02;7.90;;;2.10;1.00;;;;;;5115315;27;20338;-73
2024/02/09 06:00:40;;;;;;;8.65;6.65;;;2.10;1.00;;;;;;5114107;27;20321;-72
2024/02/09 06:03:09;;;;;;;8.98;6.57;;;2.10;1.00;;;;;;5111611;27;20258;-73
2024/02/09 06:05:40;;;;;;;7.75;6.65;;;2.10;1.00;;;;;;5113555;27;20322;-72
2024/02/09 06:08:09;;;;;;;6.78;6.15;;;2.10;1.00;;;;;;5113863;27;20308;-74
2024/02/09 06:10:36;;;;;;;8.38;7.57;;;2.10;1.00;;;;;;5112644;27;20235;-73
2024/02/09 06:13:04;;;;;;;7.88;6.70;;;2.20;1.00;;;;;;5112329;27;20231;-74
2024/02/09 06:15:31;;;;;;;7.30;6.40;;;2.20;1.00;;;;;;5111409;27;20239;-73
2024/02/09 06:18:02;;;;;;;7.25;6.28;;;2.20;1.00;;;;;;5114332;27;20246;-74
2024/02/09 06:20:33;;;;;;;7.55;6.40;;;2.20;1.00;;;;;;5093532;28;20327;-75
2024/02/09 06:23:00;;;;;;;6.97;6.13;;;2.20;1.00;;;;;;5114996;27;20352;-74
2024/02/09 06:25:27;;;;;;;6.90;6.20;;;2.20;1.00;;;;;;5113815;27;20371;-74
2024/02/09 06:27:55;;;;;;;7.40;6.07;;;2.20;1.00;;;;;;5115949;27;20263;-73
2024/02/09 06:30:22;;;;;;;7.45;6.75;;;2.20;1.00;;;;;;5116057;27;20248;-76
2024/02/09 06:32:50;;;;;;;6.25;5.53;;;2.10;1.00;;;;;;5112452;27;20235;-76
2024/02/09 06:35:18;;;;;;;6.55;5.90;;;2.10;1.00;;;;;;5113363;27;20322;-77
2024/02/09 06:37:46;;;;;;;6.60;5.90;;;2.20;1.00;;;;;;5114422;27;20235;-76
2024/02/09 06:40:15;;;;;;;6.03;5.50;;;2.20;1.00;;;;;;5113655;27;20245;-76
2024/02/09 06:42:43;;;;;;;6.57;5.55;;;2.30;1.00;;;;;;5111197;27;20231;-76
2024/02/09 06:45:14;;;;;;;5.03;4.53;;;2.30;1.00;;;;;;5112610;27;20325;-74
2024/02/09 06:47:42;;;;;;;5.35;4.78;;;2.30;1.00;;;;;;5110206;27;20232;-75
2024/02/09 06:50:10;;;;;;;6.53;5.65;;;2.30;1.00;;;;;;5114084;27;20347;-74
2024/02/09 06:52:42;;;;;;;5.38;4.88;;;2.20;1.00;;;;;;5114295;27;20289;-75
2024/02/09 06:55:11;;;;;;;5.85;5.00;;;2.20;1.00;;;;;;5108804;27;20235;-76
2024/02/09 06:57:44;;;;;;;6.20;5.00;;;2.20;1.00;;;;;;5111870;27;20247;-74
2024/02/09 07:00:14;;;;;;;5.10;4.53;;;2.10;1.00;;;;;;5111196;27;20230;-75
2024/02/09 07:02:41;;;;;;;6.45;5.85;;;2.20;1.00;;;;;;5109790;27;20424;-75
2024/02/09 07:05:11;;;;;;;6.10;5.50;;;2.20;1.00;;;;;;5088803;28;20719;-72
2024/02/09 07:07:43;;;;;;;5.57;5.03;;;2.20;1.00;;;;;;5111198;27;20243;-73
2024/02/09 07:10:13;;;;;;;5.28;4.78;;;2.20;1.00;;;;;;5108740;27;20702;-74
2024/02/09 07:12:40;;;;;;;5.82;4.97;;;2.30;1.00;;;;;;5110226;27;20235;-73
2024/02/09 07:15:12;;;;;;;7.88;4.45;;;2.20;1.00;;;;;;5105775;27;20238;-74
2024/02/09 07:17:41;;;;;;;4.97;4.43;;;2.20;1.00;;;;;;5109017;27;20239;-73
2024/02/09 07:20:09;;;;;;;5.47;4.53;;;2.20;1.00;;;;;;5108148;27;20322;-73
2024/02/09 07:22:36;;;;;;;5.40;4.90;;;2.30;1.00;;;;;;5106286;27;20279;-73
2024/02/09 07:25:03;;;;;;;6.95;4.55;;;2.30;1.00;;;;;;5108273;27;20878;-72
2024/02/09 07:27:32;;;;;;;3.78;3.47;;;2.30;1.00;;;;;;5106166;27;20909;-72
2024/02/09 07:29:59;;;;;;;5.30;4.47;;;2.40;1.00;;;;;;5105519;27;20259;-73
2024/02/09 07:32:26;;;;;;;5.78;4.40;;;2.40;1.00;;;;;;5108676;27;20235;-73
2024/02/09 07:34:53;;;;;;;4.05;3.65;;;2.50;1.00;;;;;;5105942;27;20243;-72
2024/02/09 07:37:21;;;;;;;4.45;4.05;;;2.50;1.00;;;;;;5106596;27;20349;-74
2024/02/09 07:39:48;;;;;;;4.20;3.83;;;2.60;1.00;;;;;;5105802;27;22168;-75
2024/02/09 07:42:18;;;;;;;4.85;4.22;;;2.60;1.00;;;;;;5107045;27;20292;-78
2024/02/09 07:44:46;;;;;;;4.55;4.03;;;2.60;1.00;;;;;;5107367;27;20240;-74
2024/02/09 07:47:13;;;;;;;4.20;3.72;;;2.70;1.00;;;;;;5106454;27;20231;-76
2024/02/09 07:49:40;;;;;;;5.05;4.65;;;2.70;1.00;;;;;;5109299;27;20243;-79
2024/02/09 07:52:08;;;;;;;5.30;3.72;;;2.70;1.00;;;;;;5110136;27;20236;-78
2024/02/09 07:54:36;;;;;;;5.28;4.78;;;2.70;1.00;;;;;;5109517;27;20327;-76
2024/02/09 07:57:04;;;;;;;4.32;3.80;;;2.80;1.00;;;;;;5106102;27;20235;-78
2024/02/09 07:59:31;;;;;;;4.72;4.32;;;2.70;1.00;;;;;;5109776;27;21172;-79
2024/02/09 08:02:00;;;;;;;4.40;3.85;;;2.80;1.00;;;;;;5109976;27;20248;-78
2024/02/09 08:04:28;;;;;;;5.75;4.15;;;2.70;1.00;;;;;;5109798;27;20678;-77
2024/02/09 08:06:55;;;;;;;5.47;4.97;;;2.80;1.00;;;;;;5107435;27;21253;-77
2024/02/09 08:09:21;;;;;;;6.13;5.13;;;2.70;1.00;;;;;;5109424;27;20239;-77
2024/02/09 08:11:48;;;;;;;4.80;4.30;;;2.60;1.00;;;;;;5108544;27;20329;-76
2024/02/09 08:14:15;;;;;;;4.25;3.85;;;2.80;1.00;;;;;;5107212;27;20246;-78
2024/02/09 08:16:46;;;;;;;4.30;3.90;;;2.80;1.00;;;;;;5104771;27;20326;-78
2024/02/09 08:19:15;;;;;;;5.88;4.20;;;2.80;1.00;;;;;;5090354;28;20245;-79
2024/02/09 08:21:42;;;;;;;4.15;3.85;;;2.80;1.00;;;;;;5106522;27;20336;-78
2024/02/09 08:24:14;;;;;;;4.60;3.67;;;2.80;1.00;;;;;;5113460;27;20417;-78
2024/02/09 08:26:41;;;;;;;4.13;3.35;;;2.80;1.00;;;;;;5107765;27;20351;-78
2024/02/09 08:29:08;;;;;;;4.22;3.83;;;2.80;1.00;;;;;;5109434;27;21062;-78
2024/02/09 08:31:35;;;;;;;4.65;4.25;;;2.80;1.00;;;;;;5108452;27;20710;-78
2024/02/09 08:34:02;;;;;;;4.90;4.20;;;2.90;1.00;;;;;;5108463;27;20282;-78
2024/02/09 08:36:30;;;;;;;5.07;4.40;;;3.00;1.00;;;;;;5105824;27;21068;-79
2024/02/09 08:38:57;;;;;;;18.30;16.02;;;3.00;1.00;;;;;;5109156;27;20322;-78
2024/02/09 08:41:25;;;;;;;5.82;5.25;;;3.00;1.00;;;;;;5107913;27;20715;-78
2024/02/09 08:43:52;;;;;;;5.38;4.18;;;3.00;1.00;;;;;;5109935;27;20236;-77
2024/02/09 08:46:19;;;;;;;5.05;4.55;;;3.00;1.00;;;;;;5109353;27;20258;-77
2024/02/09 08:48:46;;;;;;;4.88;4.38;;;3.00;1.00;;;;;;5107557;27;20326;-78
2024/02/09 08:51:13;;;;;;;4.80;4.40;;;3.00;1.00;;;;;;5112013;27;20325;-75
2024/02/09 08:53:42;;;;;;;6.07;5.10;;;3.00;1.00;;;;;;5088304;28;20264;-78
2024/02/09 08:56:10;;;;;;;4.80;4.30;;;2.90;1.00;;;;;;5106199;27;20954;-77
2024/02/09 08:58:38;;;;;;;4.82;3.85;;;3.00;1.00;;;;;;5108643;27;20240;-78
2024/02/09 09:01:05;;;;;;;4.68;4.00;;;3.10;1.00;;;;;;5108582;27;20324;-76
2024/02/09 09:03:33;;;;;;;6.38;4.00;;;3.10;1.00;;;;;;5108185;27;20231;-76
2024/02/09 09:06:02;;;;;;;6.05;4.68;;;3.10;1.00;;;;;;5109730;27;20259;-76
2024/02/09 09:08:30;;;;;;;5.65;4.90;;;3.10;1.00;;;;;;5107997;27;21529;-76
2024/02/09 09:10:58;;;;;;;4.35;3.92;;;3.10;1.00;;;;;;5107354;27;21015;-79
2024/02/09 09:13:25;;;;;;;3.92;3.58;;;3.00;1.00;;;;;;5109882;27;20230;-75
2024/02/09 09:15:52;;;;;;;4.47;3.95;;;3.10;1.00;;;;;;5108771;27;20315;-76
2024/02/09 09:18:20;;;;;;;5.15;4.07;;;3.10;1.00;;;;;;5108990;27;20292;-75
2024/02/09 09:20:47;;;;;;;4.35;3.95;;;3.20;1.00;;;;;;5108337;27;20239;-77
2024/02/09 09:23:15;;;;;;;4.60;4.20;;;3.20;1.00;;;;;;5105962;27;20254;-77
2024/02/09 09:25:42;;;;;;;6.03;5.53;;;3.20;1.00;;;;;;5107892;27;20757;-76
2024/02/09 09:28:12;;;;;;;5.55;4.40;;;3.20;1.00;;;;;;5088053;27;20747;-76
2024/02/09 09:30:39;;;;;;;7.57;4.45;;;3.20;1.00;;;;;;5110314;27;20289;-75
2024/02/09 09:33:06;;;;;;;3.70;3.35;;;3.20;1.00;;;;;;5107461;27;20303;-77
2024/02/09 09:35:33;;;;;;;4.03;3.63;;;3.30;1.00;;;;;;5110390;27;20717;-76
2024/02/09 09:38:04;;;;;;;5.63;4.30;;;3.30;1.00;;;;;;5112573;27;20322;-79
2024/02/09 09:40:34;;;;;;;4.68;4.20;;;3.30;1.00;;;;;;5109261;27;20235;-78
2024/02/09 09:43:04;;;;;;;4.47;4.07;;;3.40;1.00;;;;;;5109038;27;20239;-78
2024/02/09 09:45:34;;;;;;;5.03;4.03;;;3.50;1.00;;;;;;5109275;27;20231;-78
2024/02/09 09:48:05;;;;;;;5.65;4.30;;;3.50;1.00;;;;;;5106899;27;22479;-78
2024/02/09 09:50:35;;;;;;;24.70;22.40;;;3.40;1.00;;;;;;5107088;27;20235;-78
2024/02/09 09:53:04;;;;;;;3.92;3.60;;;3.40;1.00;;;;;;5106252;27;20319;-77
2024/02/09 09:55:34;;;;;;;4.78;4.28;;;3.50;1.00;;;;;;5110289;27;20235;-77
2024/02/09 09:58:02;;;;;;;4.50;4.10;;;3.50;1.00;;;;;;5109503;27;20289;-76
2024/02/09 10:00:30;;;;;;;5.35;4.85;;;3.40;1.00;;;;;;5109176;27;20281;-77
2024/02/09 10:03:01;;;;;;;6.35;5.05;;;3.50;1.00;;;;;;5109907;27;20339;-76
2024/02/09 10:05:30;;;;;;;5.40;4.53;;;3.50;1.00;;;;;;5110451;27;20231;-77
2024/02/09 10:07:57;;;;;;;4.93;3.92;;;3.50;1.00;;;;;;5109885;27;20316;-76
2024/02/09 10:10:25;;;;;;;5.25;4.10;;;3.50;1.00;;;;;;5109432;27;20249;-77
2024/02/09 10:13:04;;;;;;;5.00;4.50;;;3.70;1.00;;;;;;5105380;27;20518;-77
2024/02/09 10:15:30;;;;;;;5.97;5.47;;;3.80;1.00;;;;;;5109524;27;20226;-78
2024/02/09 10:17:59;;;;;;;5.05;4.43;;;3.80;1.00;;;;;;5111575;27;20233;-77
2024/02/09 10:20:29;;;;;;;4.90;4.50;;;3.70;1.00;;;;;;5099902;27;20242;-78
2024/02/09 10:22:56;;;;;;;5.03;4.47;;;3.70;1.00;;;;;;5108376;27;20242;-80
2024/02/09 10:25:23;;;;;;;7.15;4.90;;;3.90;1.00;;;;;;5105622;27;20415;-78
2024/02/09 10:27:51;;;;;;;5.90;4.80;;;3.90;1.00;;;;;;5103287;27;20275;-75
2024/02/09 10:30:19;;;;;;;5.07;4.57;;;4.00;1.00;;;;;;5109393;27;20936;-76
2024/02/09 10:32:47;;;;;;;5.47;4.68;;;3.90;1.00;;;;;;5107122;27;20263;-77
2024/02/09 10:35:15;;;;;;;5.40;4.90;;;3.90;1.00;;;;;;5108631;27;20686;-75
2024/02/09 10:37:43;;;;;;;4.43;3.92;;;3.90;1.00;;;;;;5110136;27;20239;-76
2024/02/09 10:40:11;;;;;;;5.13;4.63;;;3.90;1.00;;;;;;5112028;27;20230;-76
2024/02/09 10:42:40;;;;;;;5.00;4.50;;;4.00;1.00;;;;;;5111716;27;20235;-76
2024/02/09 10:45:09;;;;;;;5.43;4.40;;;4.00;1.00;;;;;;5110391;27;20326;-77
2024/02/09 10:47:38;;;;;;;5.55;5.00;;;4.00;1.00;;;;;;5111592;27;20230;-77
2024/02/09 10:50:07;;;;;;;6.78;6.13;;;4.00;1.00;;;;;;5113419;27;20273;-77
2024/02/09 10:52:38;;;;;;;6.50;4.90;;;4.00;1.00;;;;;;5112387;27;20265;-77
2024/02/09 10:55:08;;;;;;;6.57;5.20;;;4.00;1.00;;;;;;5107055;27;20294;-77
2024/02/09 10:57:35;;;;;;;5.18;4.45;;;4.10;1.00;;;;;;5112049;27;20327;-76
2024/02/09 11:00:03;;;;;;;5.10;4.60;;;4.10;1.00;;;;;;5106430;27;21042;-78
2024/02/09 11:02:31;;;;;;;4.85;4.45;;;4.20;1.00;;;;;;5110349;27;20261;-75
2024/02/09 11:05:01;;;;;;;5.75;5.15;;;4.30;1.00;;;;;;5110885;27;20738;-76
2024/02/09 11:07:29;;;;;;;5.50;5.00;;;4.40;1.00;;;;;;5107577;27;20317;-75
2024/02/09 11:09:58;;;;;;;5.50;5.00;;;4.40;1.00;;;;;;5106393;27;20248;-73
2024/02/09 11:12:25;;;;;;;6.75;5.45;;;4.40;1.00;;;;;;5107501;27;20241;-72
2024/02/09 11:14:52;;;;;;;23.85;13.82;;;4.50;1.00;;;;;;5108939;27;20247;-74
2024/02/09 11:17:20;;;;;;;5.38;4.97;;;4.40;1.00;;;;;;5109353;27;20328;-73
2024/02/09 11:19:47;;;;;;;5.90;5.35;;;4.30;1.00;;;;;;5105073;27;20241;-73
2024/02/09 11:22:14;;;;;;;5.55;4.97;;;4.40;1.00;;;;;;5106615;27;20232;-72
2024/02/09 11:24:46;;;;;;;5.55;4.63;;;4.50;1.00;;;;;;5107205;27;20266;-73
2024/02/09 11:27:15;;;;;;;6.00;5.40;;;4.70;1.00;;;;;;5104655;27;20235;-73
2024/02/09 11:29:41;;;;;;;5.82;5.30;;;4.70;1.00;;;;;;5106065;27;20236;-74
2024/02/09 11:32:09;;;;;;;6.10;5.50;;;4.80;1.00;;;;;;5110434;27;22370;-73
2024/02/09 11:34:37;;;;;;;6.22;5.60;;;4.70;1.00;;;;;;5110158;27;20325;-72
2024/02/09 11:37:04;;;;;;;7.35;6.30;;;4.70;1.00;;;;;;5110463;27;20235;-73
2024/02/09 11:39:33;;;;;;;7.50;6.25;;;4.50;1.00;;;;;;5112069;27;20325;-73
2024/02/09 11:42:02;;;;;;;7.88;6.40;;;4.50;1.00;;;;;;5106870;27;20235;-72
2024/02/09 11:44:31;;;;;;;8.95;7.28;;;4.60;1.00;;;;;;5108484;27;20300;-74
2024/02/09 11:46:59;;;;;;;6.38;5.78;;;4.70;1.00;;;;;;5105294;27;20241;-72
2024/02/09 11:49:27;;;;;;;9.88;8.43;;;4.70;1.00;;;;;;5111833;27;20307;-72
2024/02/09 11:52:01;;;;;;;7.72;6.93;;;4.80;1.00;;;;;;5108554;27;20235;-78
2024/02/09 11:54:28;;;;;;;7.22;6.25;;;4.80;1.00;;;;;;5107981;27;20239;-75
2024/02/09 11:56:57;;;;;;;7.40;6.65;;;4.90;1.00;;;;;;5107124;27;20710;-75
2024/02/09 11:59:25;;;;;;;7.53;6.82;;;4.90;1.00;;;;;;5096204;27;20966;-75
2024/02/09 12:01:54;;;;;;;6.70;6.07;;;5.00;1.00;;;;;;5112024;27;20342;-76
2024/02/09 12:04:21;;;;;;;7.00;6.38;;;5.00;1.00;;;;;;5109665;27;20234;-77
2024/02/09 12:06:49;;;;;;;6.32;5.82;;;5.10;1.00;;;;;;5109147;27;20235;-78
2024/02/09 12:09:16;;;;;;;6.90;6.30;;;5.20;1.00;;;;;;5110818;27;20275;-75
2024/02/09 12:11:43;;;;;;;7.38;6.57;;;5.20;1.00;;;;;;5106513;27;20300;-77
2024/02/09 12:14:10;;;;;;;7.78;6.57;;;5.20;1.00;;;;;;5110226;27;21042;-75
2024/02/09 12:16:37;;;;;;;7.57;6.85;;;5.00;1.00;;;;;;5105445;27;20244;-72
2024/02/09 12:19:05;;;;;;;7.30;6.53;;;5.00;1.00;;;;;;5107262;27;20255;-72
2024/02/09 12:21:33;;;;;;;7.07;6.38;;;5.20;1.00;;;;;;5105971;27;20244;-72
2024/02/09 12:24:00;;;;;;;9.73;8.45;;;5.10;1.00;;;;;;5111103;27;20240;-72
2024/02/09 12:26:27;;;;;;;8.30;7.55;;;5.20;1.00;;;;;;5111633;28;20236;-73
2024/02/09 12:28:54;;;;;;;7.20;6.50;;;5.40;1.00;;;;;;5109841;27;20228;-72
2024/02/09 12:31:21;;;;;;;8.02;7.22;;;5.40;1.00;;;;;;5108394;27;20236;-72
2024/02/09 12:33:49;;;;;;;9.05;8.15;;;5.50;1.00;;;;;;5108130;27;20340;-71
2024/02/09 12:36:20;;;;;;;7.85;7.05;;;5.50;1.00;;;;;;5110605;27;20227;-73
2024/02/09 12:38:54;;;;;;;8.00;7.30;;;5.60;1.00;;;;;;5109472;27;20267;-71
2024/02/09 12:41:21;;;;;;;8.68;7.95;;;5.70;1.00;;;;;;5111772;27;20238;-72
2024/02/09 12:43:56;;;;;;;13.07;12.02;;;5.80;1.00;;;;;;5109366;27;20680;-71
2024/02/09 12:46:24;;;;;;;9.27;8.38;;;5.80;1.00;;;;;;5109468;27;20243;-72
2024/02/09 12:48:51;;;;;;;9.38;8.35;;;5.90;1.00;;;;;;5107707;27;20246;-72
2024/02/09 12:51:19;;;;;;;9.63;8.75;;;5.70;1.00;;;;;;5109060;27;20817;-71
2024/02/09 12:53:46;;;;;;;9.15;8.27;;;5.60;1.00;;;;;;5110181;27;20342;-72
2024/02/09 12:56:14;;;;;;;10.60;8.25;;;5.60;1.00;;;;;;5110095;27;20237;-71
2024/02/09 12:58:41;;;;;;;9.38;8.43;;;5.60;1.00;;;;;;5107594;27;20332;-72
2024/02/09 13:01:08;;;;;;;9.80;8.98;;;5.60;1.00;;;;;;5105233;27;20272;-73
2024/02/09 13:03:35;;;;;;;9.68;8.85;;;5.60;1.00;;;;;;5108030;27;20790;-72
2024/02/09 13:06:05;;;;;;;10.27;9.07;;;5.50;1.00;;;;;;5106140;27;21004;-73
2024/02/09 13:08:33;;;;;;;11.15;9.43;;;5.30;1.00;;;;;;5107644;27;20235;-72
2024/02/09 13:11:00;;;;;;;9.77;8.80;;;5.40;1.00;;;;;;5109075;27;20243;-71
2024/02/09 13:13:29;;;;;;;10.30;9.07;;;5.40;1.00;;;;;;5110531;27;20729;-71
2024/02/09 13:15:56;;;;;;;9.55;8.65;;;5.50;1.00;;;;;;5108510;27;20840;-72
2024/02/09 13:18:23;;;;;;;9.68;8.57;;;5.50;1.00;;;;;;5108423;27;20378;-71
2024/02/09 13:20:50;;;;;;;11.25;10.02;;;5.50;1.00;;;;;;5108839;27;20240;-71
2024/02/09 13:23:23;;;;;;;9.63;8.82;;;5.50;1.00;;;;;;5110219;27;20242;-70
2024/02/09 13:25:51;;;;;;;10.48;8.98;;;5.60;1.00;;;;;;5107508;27;20319;-71
2024/02/09 13:28:18;;;;;;;8.98;8.05;;;5.70;1.00;;;;;;5105761;27;20279;-71
2024/02/09 13:30:46;;;;;;;10.85;9.75;;;5.70;1.00;;;;;;5105939;27;20263;-72
2024/02/09 13:33:13;;;;;;;9.68;8.77;;;5.70;1.00;;;;;;5109840;27;21047;-69
2024/02/09 13:35:40;;;;;;;10.48;9.48;;;5.70;1.00;;;;;;5108109;28;20252;-71
2024/02/09 13:38:07;;;;;;;12.82;10.77;;;5.70;1.00;;;;;;5107556;28;20243;-70
2024/02/09 13:40:34;;;;;;;11.18;10.18;;;5.80;1.00;;;;;;5106783;27;20255;-71
2024/02/09 13:43:03;;;;;;;11.20;10.20;;;5.70;1.00;;;;;;5110309;28;20349;-70
2024/02/09 13:45:30;;;;;;;11.25;10.13;;;5.70;1.00;;;;;;5109195;28;20397;-72
2024/02/09 13:47:59;;;;;;;12.40;11.20;;;5.70;1.00;;;;;;5107949;27;20324;-71
2024/02/09 13:50:26;;;;;;;11.18;10.10;;;5.80;1.00;;;;;;5103347;27;20232;-72
2024/02/09 13:52:54;;;;;;;13.05;10.70;;;5.90;1.00;;;;;;5105284;27;20252;-71
2024/02/09 13:55:22;;;;;;;11.85;10.75;;;5.90;1.00;;;;;;5109402;27;20713;-72
2024/02/09 13:57:51;;;;;;;11.40;10.27;;;5.90;1.00;;;;;;5106828;27;20945;-70
2024/02/09 14:00:21;;;;;;;13.55;11.95;;;5.90;1.00;;;;;;5109905;27;20313;-74
2024/02/09 14:02:48;;;;;;;11.50;10.40;;;5.90;1.00;;;;;;5109103;27;20351;-70
2024/02/09 14:05:16;;;;;;;12.13;10.93;;;5.80;1.00;;;;;;5106679;27;20319;-73
2024/02/09 14:07:43;;;;;;;12.30;11.00;;;5.80;1.00;;;;;;5109037;27;20395;-71
2024/02/09 14:10:12;;;;;;;13.88;12.48;;;5.90;1.00;;;;;;5109177;27;20294;-70
2024/02/09 14:12:41;;;;;;;14.65;12.95;;;5.90;1.00;;;;;;5114955;27;20340;-71
2024/02/09 14:15:10;;;;;;;12.65;11.45;;;6.00;1.00;;;;;;5112620;27;20237;-71
2024/02/09 14:17:39;;;;;;;18.33;13.35;;;5.90;1.00;;;;;;5110294;27;20240;-70
2024/02/09 14:20:07;;;;;;;12.60;11.30;;;5.90;1.00;;;;;;5112971;27;20239;-73
2024/02/09 14:22:34;;;;;;;13.05;11.43;;;5.70;1.00;;;;;;5111006;27;20243;-69
2024/02/09 14:25:02;;;;;;;15.50;11.93;;;5.70;1.00;;;;;;5112079;27;20250;-71
2024/02/09 14:27:29;;;;;;;12.60;11.30;;;5.80;1.00;;;;;;5112207;27;20244;-71
2024/02/09 14:29:58;;;;;;;15.68;14.05;;;5.80;1.00;;;;;;5112540;27;20239;-71
2024/02/09 14:32:25;;;;;;;14.35;12.73;;;5.80;1.00;;;;;;5110476;27;20235;-70
2024/02/09 14:34:53;;;;;;;13.75;12.32;;;5.80;1.00;;;;;;5108444;27;20237;-73
2024/02/09 14:37:21;;;;;;;12.07;10.88;;;5.80;1.00;;;;;;5109395;27;20792;-72
2024/02/09 14:39:48;;;;;;;13.25;11.15;;;5.80;1.00;;;;;;5110521;27;20733;-71
2024/02/09 14:42:15;;;;;;;13.57;12.18;;;5.90;1.00;;;;;;5110562;27;20236;-70
2024/02/09 14:44:47;;;;;;;13.35;11.93;;;5.90;1.00;;;;;;5112710;27;20319;-71
2024/02/09 14:47:16;;;;;;;14.52;11.60;;;6.00;1.00;;;;;;5110739;27;20263;-71
2024/02/09 14:49:45;;;;;;;14.18;12.75;;;6.00;1.00;;;;;;5098430;27;20359;-74
2024/02/09 14:52:14;;;;;;;15.25;13.52;;;6.10;1.00;;;;;;5113827;27;20872;-71
2024/02/09 14:54:41;;;;;;;13.45;12.15;;;6.10;1.00;;;;;;5112213;27;20297;-76
2024/02/09 14:57:08;;;;;;;13.73;12.27;;;6.20;1.00;;;;;;5111362;27;20242;-71
2024/02/09 14:59:35;;;;;;;11.75;10.73;;;6.20;1.00;;;;;;5112029;27;20273;-71